METAR Formatted Surface Weather Observation
Issued by NWS Corpus Christi, TX

Home | Current Version | Previous Version | Text Only | Print | Product List | Glossary On
Versions: 1
000
SAUS44 KCRP 291526
MTRVCT
SPECI KVCT 291525Z 00000KT 1/2SM FG OVC002 15/14 A3024 RMK AO2
T01500144 $



USA.gov is the U.S. government's official web portal to all federal, state and local government web resources and services.